sensor_id;sensor_type;location;lat;lon;timestamp;temperature;humidity
65637;DHT22;52327;42.622;23.316;2024-03-08T00:01:38;5.50;92.62
65637;DHT22;52327;42.622;23.316;2024-03-08T00:04:19;5.64;92.44
65637;DHT22;52327;42.622;23.316;2024-03-08T00:06:47;5.74;92.29
65637;DHT22;52327;42.622;23.316;2024-03-08T00:09:21;5.81;92.19
65637;DHT22;52327;42.622;23.316;2024-03-08T00:11:47;5.83;92.22
65637;DHT22;52327;42.622;23.316;2024-03-08T00:14:16;5.86;92.23
65637;DHT22;52327;42.622;23.316;2024-03-08T00:16:43;5.91;92.10
65637;DHT22;52327;42.622;23.316;2024-03-08T00:19:23;5.97;92.05
65637;DHT22;52327;42.622;23.316;2024-03-08T00:21:58;5.57;91.23
65637;DHT22;52327;42.622;23.316;2024-03-08T00:27:12;5.54;92.28
65637;DHT22;52327;42.622;23.316;2024-03-08T00:29:42;5.51;92.17
65637;DHT22;52327;42.622;23.316;2024-03-08T00:32:31;5.50;92.27
65637;DHT22;52327;42.622;23.316;2024-03-08T00:34:57;5.59;92.55
65637;DHT22;52327;42.622;23.316;2024-03-08T00:37:28;5.64;92.04
65637;DHT22;52327;42.622;23.316;2024-03-08T00:39:54;5.53;92.22
65637;DHT22;52327;42.622;23.316;2024-03-08T00:42:22;5.59;92.48
65637;DHT22;52327;42.622;23.316;2024-03-08T00:44:49;5.43;91.66
65637;DHT22;52327;42.622;23.316;2024-03-08T00:47:16;5.36;92.53
65637;DHT22;52327;42.622;23.316;2024-03-08T00:49:49;5.19;92.35
65637;DHT22;52327;42.622;23.316;2024-03-08T00:52:20;5.15;92.65
65637;DHT22;52327;42.622;23.316;2024-03-08T00:57:48;5.08;92.90
65637;DHT22;52327;42.622;23.316;2024-03-08T01:00:16;4.91;92.48
65637;DHT22;52327;42.622;23.316;2024-03-08T01:02:49;4.78;92.84
65637;DHT22;52327;42.622;23.316;2024-03-08T01:05:14;4.79;93.02
65637;DHT22;52327;42.622;23.316;2024-03-08T01:07:40;4.89;93.30
65637;DHT22;52327;42.622;23.316;2024-03-08T01:10:13;4.85;93.37
65637;DHT22;52327;42.622;23.316;2024-03-08T01:12:41;4.71;93.03
65637;DHT22;52327;42.622;23.316;2024-03-08T01:15:19;4.74;92.99
65637;DHT22;52327;42.622;23.316;2024-03-08T01:17:45;4.79;93.09
65637;DHT22;52327;42.622;23.316;2024-03-08T01:20:15;4.81;93.02
65637;DHT22;52327;42.622;23.316;2024-03-08T01:22:44;4.67;92.28
65637;DHT22;52327;42.622;23.316;2024-03-08T01:25:09;4.65;93.04
65637;DHT22;52327;42.622;23.316;2024-03-08T01:27:35;4.69;92.85
65637;DHT22;52327;42.622;23.316;2024-03-08T01:30:02;4.72;92.83
65637;DHT22;52327;42.622;23.316;2024-03-08T01:32:31;4.71;92.86
65637;DHT22;52327;42.622;23.316;2024-03-08T01:34:56;4.34;92.68
65637;DHT22;52327;42.622;23.316;2024-03-08T01:37:22;4.20;93.56
65637;DHT22;52327;42.622;23.316;2024-03-08T01:39:47;4.33;93.50
65637;DHT22;52327;42.622;23.316;2024-03-08T01:42:13;4.30;92.71
65637;DHT22;52327;42.622;23.316;2024-03-08T01:44:44;4.23;92.49
65637;DHT22;52327;42.622;23.316;2024-03-08T01:47:10;4.38;92.80
65637;DHT22;52327;42.622;23.316;2024-03-08T01:49:37;4.33;92.57
65637;DHT22;52327;42.622;23.316;2024-03-08T01:52:03;4.54;92.06
65637;DHT22;52327;42.622;23.316;2024-03-08T01:54:29;4.48;92.04
65637;DHT22;52327;42.622;23.316;2024-03-08T01:56:56;4.44;92.32
65637;DHT22;52327;42.622;23.316;2024-03-08T01:59:25;4.37;92.46
65637;DHT22;52327;42.622;23.316;2024-03-08T02:01:53;4.32;92.71
65637;DHT22;52327;42.622;23.316;2024-03-08T02:04:20;4.50;92.44
65637;DHT22;52327;42.622;23.316;2024-03-08T02:06:46;4.58;91.96
65637;DHT22;52327;42.622;23.316;2024-03-08T02:09:14;4.26;92.39
65637;DHT22;52327;42.622;23.316;2024-03-08T02:11:41;4.27;92.82
65637;DHT22;52327;42.622;23.316;2024-03-08T02:14:06;4.29;93.19
65637;DHT22;52327;42.622;23.316;2024-03-08T02:16:32;4.46;93.38
65637;DHT22;52327;42.622;23.316;2024-03-08T02:18:58;4.48;92.95
65637;DHT22;52327;42.622;23.316;2024-03-08T02:21:27;4.43;92.95
65637;DHT22;52327;42.622;23.316;2024-03-08T02:23:55;4.41;93.36
65637;DHT22;52327;42.622;23.316;2024-03-08T02:26:20;4.41;93.32
65637;DHT22;52327;42.622;23.316;2024-03-08T02:28:46;4.34;93.22
65637;DHT22;52327;42.622;23.316;2024-03-08T02:31:12;4.26;93.13
65637;DHT22;52327;42.622;23.316;2024-03-08T02:33:45;4.17;93.24
65637;DHT22;52327;42.622;23.316;2024-03-08T02:36:13;4.11;93.44
65637;DHT22;52327;42.622;23.316;2024-03-08T02:38:41;4.27;93.01
65637;DHT22;52327;42.622;23.316;2024-03-08T02:41:07;4.40;92.74
65637;DHT22;52327;42.622;23.316;2024-03-08T02:43:34;4.26;92.46
65637;DHT22;52327;42.622;23.316;2024-03-08T02:46:02;4.34;93.04
65637;DHT22;52327;42.622;23.316;2024-03-08T02:48:30;4.56;92.49
65637;DHT22;52327;42.622;23.316;2024-03-08T02:50:58;4.56;92.28
65637;DHT22;52327;42.622;23.316;2024-03-08T02:53:31;4.56;92.67
65637;DHT22;52327;42.622;23.316;2024-03-08T02:56:09;4.40;92.83
65637;DHT22;52327;42.622;23.316;2024-03-08T02:58:41;4.26;93.19
65637;DHT22;52327;42.622;23.316;2024-03-08T03:01:13;4.23;93.30
65637;DHT22;52327;42.622;23.316;2024-03-08T03:03:40;4.38;92.47
65637;DHT22;52327;42.622;23.316;2024-03-08T03:06:13;4.40;92.88
65637;DHT22;52327;42.622;23.316;2024-03-08T03:08:41;4.53;93.30
65637;DHT22;52327;42.622;23.316;2024-03-08T03:11:09;4.62;93.10
65637;DHT22;52327;42.622;23.316;2024-03-08T03:13:39;4.75;93.02
65637;DHT22;52327;42.622;23.316;2024-03-08T03:16:24;4.82;92.75
65637;DHT22;52327;42.622;23.316;2024-03-08T03:18:55;4.85;92.63
65637;DHT22;52327;42.622;23.316;2024-03-08T03:21:43;4.87;92.71
65637;DHT22;52327;42.622;23.316;2024-03-08T03:24:28;4.85;92.53
65637;DHT22;52327;42.622;23.316;2024-03-08T03:26:54;4.71;91.95
65637;DHT22;52327;42.622;23.316;2024-03-08T03:29:27;4.53;91.65
65637;DHT22;52327;42.622;23.316;2024-03-08T03:31:55;4.24;91.81
65637;DHT22;52327;42.622;23.316;2024-03-08T03:34:22;4.26;92.02
65637;DHT22;52327;42.622;23.316;2024-03-08T03:36:55;4.27;92.14
65637;DHT22;52327;42.622;23.316;2024-03-08T03:39:23;4.34;92.17
65637;DHT22;52327;42.622;23.316;2024-03-08T03:41:54;4.27;92.25
65637;DHT22;52327;42.622;23.316;2024-03-08T03:44:20;4.26;91.62
65637;DHT22;52327;42.622;23.316;2024-03-08T03:46:45;4.30;91.54
65637;DHT22;52327;42.622;23.316;2024-03-08T03:49:11;4.29;91.56
65637;DHT22;52327;42.622;23.316;2024-03-08T03:51:39;4.16;91.52
65637;DHT22;52327;42.622;23.316;2024-03-08T03:54:05;4.14;91.62
65637;DHT22;52327;42.622;23.316;2024-03-08T03:56:30;4.26;91.52
65637;DHT22;52327;42.622;23.316;2024-03-08T03:58:56;4.27;91.32
65637;DHT22;52327;42.622;23.316;2024-03-08T04:01:27;4.43;91.69
65637;DHT22;52327;42.622;23.316;2024-03-08T04:03:52;4.46;91.99
65637;DHT22;52327;42.622;23.316;2024-03-08T04:06:18;4.48;92.74
65637;DHT22;52327;42.622;23.316;2024-03-08T04:08:43;4.57;92.43
65637;DHT22;52327;42.622;23.316;2024-03-08T04:11:09;4.54;92.18
65637;DHT22;52327;42.622;23.316;2024-03-08T04:13:34;4.60;91.48
65637;DHT22;52327;42.622;23.316;2024-03-08T04:16:02;4.43;91.67
65637;DHT22;52327;42.622;23.316;2024-03-08T04:18:27;4.38;91.77
65637;DHT22;52327;42.622;23.316;2024-03-08T04:20:53;4.46;90.91
65637;DHT22;52327;42.622;23.316;2024-03-08T04:23:22;4.46;91.13
65637;DHT22;52327;42.622;23.316;2024-03-08T04:25:47;4.53;91.37
65637;DHT22;52327;42.622;23.316;2024-03-08T04:28:13;4.53;90.44
65637;DHT22;52327;42.622;23.316;2024-03-08T04:30:39;4.40;91.60
65637;DHT22;52327;42.622;23.316;2024-03-08T04:33:07;4.21;90.87
65637;DHT22;52327;42.622;23.316;2024-03-08T04:35:33;4.18;91.63
65637;DHT22;52327;42.622;23.316;2024-03-08T04:37:59;4.30;91.75
65637;DHT22;52327;42.622;23.316;2024-03-08T04:40:25;4.33;91.96
65637;DHT22;52327;42.622;23.316;2024-03-08T04:42:51;4.47;91.89
65637;DHT22;52327;42.622;23.316;2024-03-08T04:45:17;4.50;91.42
65637;DHT22;52327;42.622;23.316;2024-03-08T04:47:43;4.37;90.51
65637;DHT22;52327;42.622;23.316;2024-03-08T04:50:09;4.26;90.18
65637;DHT22;52327;42.622;23.316;2024-03-08T04:52:35;4.36;91.03
65637;DHT22;52327;42.622;23.316;2024-03-08T04:55:01;4.20;89.57
65637;DHT22;52327;42.622;23.316;2024-03-08T04:57:32;4.13;90.88
65637;DHT22;52327;42.622;23.316;2024-03-08T05:00:02;4.27;92.30
65637;DHT22;52327;42.622;23.316;2024-03-08T05:02:29;4.36;92.58
65637;DHT22;52327;42.622;23.316;2024-03-08T05:04:57;4.47;92.66
65637;DHT22;52327;42.622;23.316;2024-03-08T05:07:23;4.56;92.56
65637;DHT22;52327;42.622;23.316;2024-03-08T05:09:49;4.64;92.55
65637;DHT22;52327;42.622;23.316;2024-03-08T05:12:17;4.69;92.36
65637;DHT22;52327;42.622;23.316;2024-03-08T05:14:45;4.72;92.28
65637;DHT22;52327;42.622;23.316;2024-03-08T05:17:11;4.71;92.23
65637;DHT22;52327;42.622;23.316;2024-03-08T05:19:42;4.75;92.11
65637;DHT22;52327;42.622;23.316;2024-03-08T05:22:10;4.72;92.05
65637;DHT22;52327;42.622;23.316;2024-03-08T05:24:36;4.77;92.22
65637;DHT22;52327;42.622;23.316;2024-03-08T05:27:02;4.79;91.90
65637;DHT22;52327;42.622;23.316;2024-03-08T05:29:29;4.77;92.08
65637;DHT22;52327;42.622;23.316;2024-03-08T05:31:55;4.85;92.13
65637;DHT22;52327;42.622;23.316;2024-03-08T05:34:21;4.92;92.16
65637;DHT22;52327;42.622;23.316;2024-03-08T05:36:50;4.98;92.06
65637;DHT22;52327;42.622;23.316;2024-03-08T05:39:16;5.02;92.05
65637;DHT22;52327;42.622;23.316;2024-03-08T05:41:43;4.89;91.33
65637;DHT22;52327;42.622;23.316;2024-03-08T05:44:09;4.69;91.53
65637;DHT22;52327;42.622;23.316;2024-03-08T05:46:35;4.64;92.01
65637;DHT22;52327;42.622;23.316;2024-03-08T05:49:04;4.58;91.90
65637;DHT22;52327;42.622;23.316;2024-03-08T05:51:36;4.60;92.71
65637;DHT22;52327;42.622;23.316;2024-03-08T05:54:09;4.65;92.76
65637;DHT22;52327;42.622;23.316;2024-03-08T05:56:38;4.48;91.12
65637;DHT22;52327;42.622;23.316;2024-03-08T05:59:07;4.32;91.99
65637;DHT22;52327;42.622;23.316;2024-03-08T06:01:32;4.14;91.84
65637;DHT22;52327;42.622;23.316;2024-03-08T06:04:02;4.13;92.48
65637;DHT22;52327;42.622;23.316;2024-03-08T06:06:27;4.20;92.64
65637;DHT22;52327;42.622;23.316;2024-03-08T06:08:53;4.29;92.77
65637;DHT22;52327;42.622;23.316;2024-03-08T06:11:32;4.50;93.02
65637;DHT22;52327;42.622;23.316;2024-03-08T06:14:03;4.71;92.87
65637;DHT22;52327;42.622;23.316;2024-03-08T06:16:32;4.79;92.43
65637;DHT22;52327;42.622;23.316;2024-03-08T06:19:01;4.88;92.12
65637;DHT22;52327;42.622;23.316;2024-03-08T06:21:29;5.02;92.45
65637;DHT22;52327;42.622;23.316;2024-03-08T06:23:55;5.08;91.90
65637;DHT22;52327;42.622;23.316;2024-03-08T06:26:24;5.16;92.15
65637;DHT22;52327;42.622;23.316;2024-03-08T06:28:50;5.18;91.62
65637;DHT22;52327;42.622;23.316;2024-03-08T06:31:16;5.22;92.08
65637;DHT22;52327;42.622;23.316;2024-03-08T06:33:41;5.35;91.76
65637;DHT22;52327;42.622;23.316;2024-03-08T06:36:08;5.43;91.29
65637;DHT22;52327;42.622;23.316;2024-03-08T06:38:33;5.49;90.57
65637;DHT22;52327;42.622;23.316;2024-03-08T06:40:59;5.44;90.80
65637;DHT22;52327;42.622;23.316;2024-03-08T06:43:26;5.47;90.82
65637;DHT22;52327;42.622;23.316;2024-03-08T06:45:58;5.54;88.95
65637;DHT22;52327;42.622;23.316;2024-03-08T06:48:23;5.44;90.45
65637;DHT22;52327;42.622;23.316;2024-03-08T06:50:48;5.46;90.23
65637;DHT22;52327;42.622;23.316;2024-03-08T06:53:14;5.46;90.19
65637;DHT22;52327;42.622;23.316;2024-03-08T06:55:40;5.36;90.81
65637;DHT22;52327;42.622;23.316;2024-03-08T06:58:06;5.32;91.28
65637;DHT22;52327;42.622;23.316;2024-03-08T07:00:36;5.30;91.38
65637;DHT22;52327;42.622;23.316;2024-03-08T07:03:07;5.33;91.64
65637;DHT22;52327;42.622;23.316;2024-03-08T07:05:33;5.47;90.88
65637;DHT22;52327;42.622;23.316;2024-03-08T07:07:58;5.57;90.82
65637;DHT22;52327;42.622;23.316;2024-03-08T07:10:23;5.54;90.97
65637;DHT22;52327;42.622;23.316;2024-03-08T07:12:53;5.51;91.41
65637;DHT22;52327;42.622;23.316;2024-03-08T07:15:19;5.49;91.05
65637;DHT22;52327;42.622;23.316;2024-03-08T07:17:45;5.53;91.34
65637;DHT22;52327;42.622;23.316;2024-03-08T07:20:12;5.49;91.39
65637;DHT22;52327;42.622;23.316;2024-03-08T07:22:39;5.60;91.62
65637;DHT22;52327;42.622;23.316;2024-03-08T07:25:05;5.63;91.31
65637;DHT22;52327;42.622;23.316;2024-03-08T07:27:53;5.61;91.44
65637;DHT22;52327;42.622;23.316;2024-03-08T07:30:20;5.73;91.53
65637;DHT22;52327;42.622;23.316;2024-03-08T07:33:05;5.78;91.30
65637;DHT22;52327;42.622;23.316;2024-03-08T07:35:32;5.81;91.28
65637;DHT22;52327;42.622;23.316;2024-03-08T07:37:57;5.95;90.94
65637;DHT22;52327;42.622;23.316;2024-03-08T07:40:25;5.91;91.00
65637;DHT22;52327;42.622;23.316;2024-03-08T07:42:50;5.98;91.12
65637;DHT22;52327;42.622;23.316;2024-03-08T07:45:16;6.01;91.13
65637;DHT22;52327;42.622;23.316;2024-03-08T07:47:42;5.98;91.04
65637;DHT22;52327;42.622;23.316;2024-03-08T07:50:08;5.95;90.73
65637;DHT22;52327;42.622;23.316;2024-03-08T07:52:34;5.78;89.94
65637;DHT22;52327;42.622;23.316;2024-03-08T07:55:00;5.81;90.98
65637;DHT22;52327;42.622;23.316;2024-03-08T07:57:26;5.77;90.84
65637;DHT22;52327;42.622;23.316;2024-03-08T07:59:51;5.69;90.68
65637;DHT22;52327;42.622;23.316;2024-03-08T08:02:17;5.75;91.27
65637;DHT22;52327;42.622;23.316;2024-03-08T08:04:42;5.87;90.76
65637;DHT22;52327;42.622;23.316;2024-03-08T08:07:10;5.88;90.89
65637;DHT22;52327;42.622;23.316;2024-03-08T08:09:35;5.88;91.09
65637;DHT22;52327;42.622;23.316;2024-03-08T08:12:01;5.91;90.79
65637;DHT22;52327;42.622;23.316;2024-03-08T08:14:29;6.04;91.23
65637;DHT22;52327;42.622;23.316;2024-03-08T08:16:55;6.01;89.55
65637;DHT22;52327;42.622;23.316;2024-03-08T08:19:22;6.08;91.14
65637;DHT22;52327;42.622;23.316;2024-03-08T08:21:47;6.17;90.92
65637;DHT22;52327;42.622;23.316;2024-03-08T08:24:13;6.20;89.94
65637;DHT22;52327;42.622;23.316;2024-03-08T08:26:39;6.22;90.90
65637;DHT22;52327;42.622;23.316;2024-03-08T08:29:04;6.38;91.21
65637;DHT22;52327;42.622;23.316;2024-03-08T08:31:31;6.46;91.13
65637;DHT22;52327;42.622;23.316;2024-03-08T08:33:57;6.69;91.26
65637;DHT22;52327;42.622;23.316;2024-03-08T08:36:26;6.84;91.07
65637;DHT22;52327;42.622;23.316;2024-03-08T08:38:54;6.80;89.73
65637;DHT22;52327;42.622;23.316;2024-03-08T08:41:20;6.75;88.47
65637;DHT22;52327;42.622;23.316;2024-03-08T08:43:47;6.43;88.72
65637;DHT22;52327;42.622;23.316;2024-03-08T08:46:12;6.36;87.78
65637;DHT22;52327;42.622;23.316;2024-03-08T08:48:39;6.31;89.08
65637;DHT22;52327;42.622;23.316;2024-03-08T08:51:09;6.50;89.62
65637;DHT22;52327;42.622;23.316;2024-03-08T08:53:38;6.59;88.70
65637;DHT22;52327;42.622;23.316;2024-03-08T08:56:03;6.52;88.02
65637;DHT22;52327;42.622;23.316;2024-03-08T08:58:29;6.48;88.37
65637;DHT22;52327;42.622;23.316;2024-03-08T09:00:54;6.76;87.38
65637;DHT22;52327;42.622;23.316;2024-03-08T09:03:20;6.97;90.24
65637;DHT22;52327;42.622;23.316;2024-03-08T09:05:45;7.25;91.04
65637;DHT22;52327;42.622;23.316;2024-03-08T09:08:11;7.51;91.01
65637;DHT22;52327;42.622;23.316;2024-03-08T09:10:38;7.75;87.09
65637;DHT22;52327;42.622;23.316;2024-03-08T09:13:04;7.75;86.95
65637;DHT22;52327;42.622;23.316;2024-03-08T09:15:29;7.40;85.99
65637;DHT22;52327;42.622;23.316;2024-03-08T09:17:55;7.07;88.53
65637;DHT22;52327;42.622;23.316;2024-03-08T09:20:20;7.11;89.80
65637;DHT22;52327;42.622;23.316;2024-03-08T09:22:46;6.48;85.16
65637;DHT22;52327;42.622;23.316;2024-03-08T09:25:11;6.49;85.45
65637;DHT22;52327;42.622;23.316;2024-03-08T09:27:37;6.73;88.28
65637;DHT22;52327;42.622;23.316;2024-03-08T09:30:03;6.71;89.03
65637;DHT22;52327;42.622;23.316;2024-03-08T09:32:29;6.53;88.52
65637;DHT22;52327;42.622;23.316;2024-03-08T09:34:55;6.93;89.44
65637;DHT22;52327;42.622;23.316;2024-03-08T09:37:21;7.14;90.35
65637;DHT22;52327;42.622;23.316;2024-03-08T09:39:46;7.05;87.01
65637;DHT22;52327;42.622;23.316;2024-03-08T09:42:12;6.93;88.84
65637;DHT22;52327;42.622;23.316;2024-03-08T09:44:44;6.73;84.70
65637;DHT22;52327;42.622;23.316;2024-03-08T09:47:13;6.63;88.12
65637;DHT22;52327;42.622;23.316;2024-03-08T09:49:39;6.43;86.41
65637;DHT22;52327;42.622;23.316;2024-03-08T09:52:07;6.61;87.28
65637;DHT22;52327;42.622;23.316;2024-03-08T09:54:32;6.53;88.05
65637;DHT22;52327;42.622;23.316;2024-03-08T09:56:59;6.24;85.33
65637;DHT22;52327;42.622;23.316;2024-03-08T09:59:24;6.57;87.79
65637;DHT22;52327;42.622;23.316;2024-03-08T10:01:52;6.84;89.33
65637;DHT22;52327;42.622;23.316;2024-03-08T10:04:22;7.11;84.64
65637;DHT22;52327;42.622;23.316;2024-03-08T10:06:47;6.96;85.88
65637;DHT22;52327;42.622;23.316;2024-03-08T10:09:14;7.08;86.16
65637;DHT22;52327;42.622;23.316;2024-03-08T10:11:42;7.08;85.57
65637;DHT22;52327;42.622;23.316;2024-03-08T10:14:11;7.14;86.05
65637;DHT22;52327;42.622;23.316;2024-03-08T10:16:38;7.24;87.47
65637;DHT22;52327;42.622;23.316;2024-03-08T10:19:04;7.56;87.06
65637;DHT22;52327;42.622;23.316;2024-03-08T10:21:31;7.93;88.38
65637;DHT22;52327;42.622;23.316;2024-03-08T10:23:58;8.19;85.57
65637;DHT22;52327;42.622;23.316;2024-03-08T10:26:24;8.48;87.22
65637;DHT22;52327;42.622;23.316;2024-03-08T10:28:51;8.56;82.01
65637;DHT22;52327;42.622;23.316;2024-03-08T10:31:18;8.84;83.16
65637;DHT22;52327;42.622;23.316;2024-03-08T10:33:45;9.08;86.29
65637;DHT22;52327;42.622;23.316;2024-03-08T10:36:12;8.38;80.92
65637;DHT22;52327;42.622;23.316;2024-03-08T10:38:39;8.14;78.56
65637;DHT22;52327;42.622;23.316;2024-03-08T10:41:14;8.26;84.79
65637;DHT22;52327;42.622;23.316;2024-03-08T10:46:24;7.85;78.09
65637;DHT22;52327;42.622;23.316;2024-03-08T10:48:55;7.27;79.44
65637;DHT22;52327;42.622;23.316;2024-03-08T10:51:23;7.40;82.68
65637;DHT22;52327;42.622;23.316;2024-03-08T10:53:50;7.89;84.87
65637;DHT22;52327;42.622;23.316;2024-03-08T10:56:17;8.00;80.21
65637;DHT22;52327;42.622;23.316;2024-03-08T10:58:43;8.03;79.61
65637;DHT22;52327;42.622;23.316;2024-03-08T11:01:09;8.05;80.63
65637;DHT22;52327;42.622;23.316;2024-03-08T11:06:06;8.06;78.64
65637;DHT22;52327;42.622;23.316;2024-03-08T11:08:33;7.96;76.14
65637;DHT22;52327;42.622;23.316;2024-03-08T11:11:03;7.48;77.09
65637;DHT22;52327;42.622;23.316;2024-03-08T11:13:42;7.61;81.24
65637;DHT22;52327;42.622;23.316;2024-03-08T11:16:10;8.02;83.97
65637;DHT22;52327;42.622;23.316;2024-03-08T11:18:47;8.40;83.51
65637;DHT22;52327;42.622;23.316;2024-03-08T11:21:13;8.75;83.05
65637;DHT22;52327;42.622;23.316;2024-03-08T11:23:39;8.74;78.28
65637;DHT22;52327;42.622;23.316;2024-03-08T11:26:21;8.72;75.73
65637;DHT22;52327;42.622;23.316;2024-03-08T11:28:50;8.77;75.88
65637;DHT22;52327;42.622;23.316;2024-03-08T11:33:46;8.60;80.74
65637;DHT22;52327;42.622;23.316;2024-03-08T11:36:20;8.74;81.80
65637;DHT22;52327;42.622;23.316;2024-03-08T11:38:48;8.74;78.13
65637;DHT22;52327;42.622;23.316;2024-03-08T11:41:21;8.93;76.22
65637;DHT22;52327;42.622;23.316;2024-03-08T11:43:47;9.04;78.57
65637;DHT22;52327;42.622;23.316;2024-03-08T11:46:24;8.78;73.93
65637;DHT22;52327;42.622;23.316;2024-03-08T11:48:50;8.79;76.69
65637;DHT22;52327;42.622;23.316;2024-03-08T11:51:15;8.84;73.82
65637;DHT22;52327;42.622;23.316;2024-03-08T11:53:43;8.82;71.46
65637;DHT22;52327;42.622;23.316;2024-03-08T11:56:11;8.58;71.35
65637;DHT22;52327;42.622;23.316;2024-03-08T11:58:38;8.56;76.15
65637;DHT22;52327;42.622;23.316;2024-03-08T12:01:04;8.87;78.36
65637;DHT22;52327;42.622;23.316;2024-03-08T12:03:31;9.19;80.28
65637;DHT22;52327;42.622;23.316;2024-03-08T12:06:02;9.29;77.49
65637;DHT22;52327;42.622;23.316;2024-03-08T12:08:36;9.38;77.92
65637;DHT22;52327;42.622;23.316;2024-03-08T12:11:07;9.07;70.48
65637;DHT22;52327;42.622;23.316;2024-03-08T12:13:35;8.93;75.18
65637;DHT22;52327;42.622;23.316;2024-03-08T12:16:06;8.57;73.28
65637;DHT22;52327;42.622;23.316;2024-03-08T12:18:34;8.53;79.47
65637;DHT22;52327;42.622;23.316;2024-03-08T12:21:10;8.34;74.03
65637;DHT22;52327;42.622;23.316;2024-03-08T12:23:38;8.56;81.22
65637;DHT22;52327;42.622;23.316;2024-03-08T12:26:25;8.63;79.85
65637;DHT22;52327;42.622;23.316;2024-03-08T12:28:51;8.71;80.86
65637;DHT22;52327;42.622;23.316;2024-03-08T12:31:20;8.84;79.23
65637;DHT22;52327;42.622;23.316;2024-03-08T12:33:50;8.95;78.93
65637;DHT22;52327;42.622;23.316;2024-03-08T12:36:21;8.98;77.43
65637;DHT22;52327;42.622;23.316;2024-03-08T12:38:47;9.18;80.10
65637;DHT22;52327;42.622;23.316;2024-03-08T12:41:16;9.11;76.12
65637;DHT22;52327;42.622;23.316;2024-03-08T12:43:43;9.30;78.90
65637;DHT22;52327;42.622;23.316;2024-03-08T12:46:14;9.46;79.59
65637;DHT22;52327;42.622;23.316;2024-03-08T12:48:40;9.33;73.65
65637;DHT22;52327;42.622;23.316;2024-03-08T12:51:09;9.44;73.34
65637;DHT22;52327;42.622;23.316;2024-03-08T12:53:35;9.52;76.19
65637;DHT22;52327;42.622;23.316;2024-03-08T12:56:06;9.43;68.55
65637;DHT22;52327;42.622;23.316;2024-03-08T12:58:36;9.16;68.94
65637;DHT22;52327;42.622;23.316;2024-03-08T13:01:05;8.88;73.89
65637;DHT22;52327;42.622;23.316;2024-03-08T13:03:33;8.99;77.68
65637;DHT22;52327;42.622;23.316;2024-03-08T13:06:10;9.08;74.44
65637;DHT22;52327;42.622;23.316;2024-03-08T13:08:36;9.22;77.95
65637;DHT22;52327;42.622;23.316;2024-03-08T13:11:04;9.36;78.92
65637;DHT22;52327;42.622;23.316;2024-03-08T13:13:30;9.54;79.42
65637;DHT22;52327;42.622;23.316;2024-03-08T13:15:55;9.57;75.90
65637;DHT22;52327;42.622;23.316;2024-03-08T13:18:22;9.67;76.73
65637;DHT22;52327;42.622;23.316;2024-03-08T13:20:48;9.83;78.84
65637;DHT22;52327;42.622;23.316;2024-03-08T13:23:17;10.18;74.73
65637;DHT22;52327;42.622;23.316;2024-03-08T13:25:42;10.63;71.76
65637;DHT22;52327;42.622;23.316;2024-03-08T13:28:10;11.91;69.98
65637;DHT22;52327;42.622;23.316;2024-03-08T13:30:36;12.26;68.50
65637;DHT22;52327;42.622;23.316;2024-03-08T13:33:01;12.79;67.83
65637;DHT22;52327;42.622;23.316;2024-03-08T13:35:30;12.66;60.87
65637;DHT22;52327;42.622;23.316;2024-03-08T13:37:55;12.67;63.89
65637;DHT22;52327;42.622;23.316;2024-03-08T13:40:21;12.52;65.32
65637;DHT22;52327;42.622;23.316;2024-03-08T13:42:50;12.22;68.40
65637;DHT22;52327;42.622;23.316;2024-03-08T13:45:16;11.99;64.11
65637;DHT22;52327;42.622;23.316;2024-03-08T13:47:47;11.85;66.10
65637;DHT22;52327;42.622;23.316;2024-03-08T13:50:14;11.68;65.37
65637;DHT22;52327;42.622;23.316;2024-03-08T13:52:46;11.98;68.91
65637;DHT22;52327;42.622;23.316;2024-03-08T13:55:12;11.82;67.22
65637;DHT22;52327;42.622;23.316;2024-03-08T13:57:38;11.96;71.67
65637;DHT22;52327;42.622;23.316;2024-03-08T14:00:04;11.99;71.47
65637;DHT22;52327;42.622;23.316;2024-03-08T14:02:32;12.01;72.65
65637;DHT22;52327;42.622;23.316;2024-03-08T14:04:59;11.88;70.80
65637;DHT22;52327;42.622;23.316;2024-03-08T14:07:26;11.71;72.24
65637;DHT22;52327;42.622;23.316;2024-03-08T14:09:54;11.68;73.41
65637;DHT22;52327;42.622;23.316;2024-03-08T14:12:23;11.64;72.79
65637;DHT22;52327;42.622;23.316;2024-03-08T14:14:56;11.41;74.16
65637;DHT22;52327;42.622;23.316;2024-03-08T14:17:26;11.13;72.01
65637;DHT22;52327;42.622;23.316;2024-03-08T14:19:52;11.06;74.17
65637;DHT22;52327;42.622;23.316;2024-03-08T14:22:18;10.55;68.18
65637;DHT22;52327;42.622;23.316;2024-03-08T14:24:43;10.40;72.16
65637;DHT22;52327;42.622;23.316;2024-03-08T14:27:10;9.93;71.52
65637;DHT22;52327;42.622;23.316;2024-03-08T14:29:37;9.95;73.56
65637;DHT22;52327;42.622;23.316;2024-03-08T14:32:04;10.14;78.08
65637;DHT22;52327;42.622;23.316;2024-03-08T14:34:31;10.27;78.45
65637;DHT22;52327;42.622;23.316;2024-03-08T14:36:59;10.37;79.85
65637;DHT22;52327;42.622;23.316;2024-03-08T14:39:25;10.38;78.30
65637;DHT22;52327;42.622;23.316;2024-03-08T14:41:55;10.30;75.53
65637;DHT22;52327;42.622;23.316;2024-03-08T14:44:21;10.28;72.44
65637;DHT22;52327;42.622;23.316;2024-03-08T14:46:53;10.20;77.39
65637;DHT22;52327;42.622;23.316;2024-03-08T14:49:19;10.24;67.47
65637;DHT22;52327;42.622;23.316;2024-03-08T14:51:45;10.21;75.01
65637;DHT22;52327;42.622;23.316;2024-03-08T14:54:10;10.10;77.31
65637;DHT22;52327;42.622;23.316;2024-03-08T14:56:36;10.03;78.19
65637;DHT22;52327;42.622;23.316;2024-03-08T14:59:02;10.03;78.17
65637;DHT22;52327;42.622;23.316;2024-03-08T15:01:30;9.89;76.83
65637;DHT22;52327;42.622;23.316;2024-03-08T15:03:58;9.19;70.81
65637;DHT22;52327;42.622;23.316;2024-03-08T15:06:29;9.02;76.42
65637;DHT22;52327;42.622;23.316;2024-03-08T15:08:56;8.64;77.18
65637;DHT22;52327;42.622;23.316;2024-03-08T15:11:23;8.46;75.64
65637;DHT22;52327;42.622;23.316;2024-03-08T15:13:50;8.47;80.19
65637;DHT22;52327;42.622;23.316;2024-03-08T15:16:18;8.51;81.30
65637;DHT22;52327;42.622;23.316;2024-03-08T15:18:46;8.41;79.46
65637;DHT22;52327;42.622;23.316;2024-03-08T15:21:14;8.29;75.47
65637;DHT22;52327;42.622;23.316;2024-03-08T15:23:45;8.16;79.42
65637;DHT22;52327;42.622;23.316;2024-03-08T15:26:15;8.17;78.95
65637;DHT22;52327;42.622;23.316;2024-03-08T15:28:41;8.10;82.35
65637;DHT22;52327;42.622;23.316;2024-03-08T15:31:07;7.89;76.25
65637;DHT22;52327;42.622;23.316;2024-03-08T15:33:36;7.66;77.99
65637;DHT22;52327;42.622;23.316;2024-03-08T15:36:17;7.56;78.86
65637;DHT22;52327;42.622;23.316;2024-03-08T15:38:42;7.51;78.44
65637;DHT22;52327;42.622;23.316;2024-03-08T15:41:14;7.51;82.53
65637;DHT22;52327;42.622;23.316;2024-03-08T15:43:40;7.34;76.16
65637;DHT22;52327;42.622;23.316;2024-03-08T15:46:06;7.25;79.72
65637;DHT22;52327;42.622;23.316;2024-03-08T15:48:32;7.18;77.53